»·PEaware :: N373EB KBFL-KWHP

N373EB :: KBFL-KWHP

FLIGHT INFORMATION

Flight Status: Arrived
Operator: Privately registered:
United States
More flights under this callsign
Pilot: Peder R. (40111)
Aircraft: BEECH AIRCRAFT DEBONAIR BONANZA
(BE33)
More flights by this aircraft type
Origin: KBFL Meadows
United States
Destination: KWHP Whiteman
United States
More flights between these airports :: More routes between these airports
Route: OILDA1 LHS V459 SAUGS
File this flight plan on PilotEdge
Remarks:
Altitude:
(Current/Filed)
11,000ft
Speed:
(Current/Filed)
155kts
Departed: 01-Sep-23 09:32 AM
Arrived: 01-Sep-23 10:19 AM
Distance/Time
Traveled:
77nm/0:47
Distance/Time
To Go:
Arrived

Flight Plot

Page will automatically refresh every two minutes.

Flight plan parsing failed; only flown route is shown


Map Options




Map Legend


Flown Route
Filed Route
Departure Airport
Arrival Airport
Navaid (VOR, NDB)
Fix

Horizontal Profiles

Position Reports

Time Latitude Longitude Heading Altitude Ground
Speed
01-Sep-23 09:15 35.427030 -119.044227 247 486ft 0kts
01-Sep-23 09:16 35.427030 -119.044227 247 486ft 0kts
01-Sep-23 09:17 35.427030 -119.044227 247 486ft 0kts
01-Sep-23 09:18 35.427030 -119.044227 247 486ft 0kts
01-Sep-23 09:19 35.427030 -119.044227 247 486ft 0kts
01-Sep-23 09:20 35.427030 -119.044227 247 486ft 0kts
01-Sep-23 09:21 35.427030 -119.044227 247 486ft 0kts
01-Sep-23 09:22 35.427030 -119.044227 247 486ft 0kts
01-Sep-23 09:23 35.427030 -119.044227 247 486ft 0kts
01-Sep-23 09:24 35.427030 -119.044227 247 486ft 0kts
01-Sep-23 09:25 35.427030 -119.044227 247 486ft 0kts
01-Sep-23 09:26 35.427030 -119.044227 247 486ft 0kts
01-Sep-23 09:27 35.427030 -119.044227 247 486ft 0kts
01-Sep-23 09:28 35.426803 -119.044527 185 484ft 0kts
01-Sep-23 09:29 35.426803 -119.044527 185 484ft 0kts
01-Sep-23 09:30 35.425807 -119.045034 225 479ft 0kts
01-Sep-23 09:31 35.429286 -119.050634 316 491ft 81kts
01-Sep-23 09:32 35.447251 -119.072579 315 1473ft 92kts
01-Sep-23 09:33 35.465999 -119.096298 313 2242ft 103kts
01-Sep-23 09:34 35.485557 -119.122342 303 3112ft 107kts
01-Sep-23 09:36 35.469402 -119.141688 143 3948ft 113kts
01-Sep-23 09:37 35.443223 -119.121141 146 4834ft 114kts
01-Sep-23 09:38 35.416672 -119.100452 144 5624ft 117kts
01-Sep-23 09:39 35.388956 -119.078473 141 6390ft 118kts
01-Sep-23 09:40 35.361047 -119.056763 139 7090ft 118kts
01-Sep-23 09:41 35.333210 -119.034271 143 7734ft 120kts
01-Sep-23 09:42 35.304502 -119.013108 146 8332ft 120kts
01-Sep-23 09:43 35.275024 -118.992759 145 8874ft 121kts
01-Sep-23 09:44 35.245021 -118.972893 145 9385ft 122kts
01-Sep-23 09:45 35.214797 -118.952636 146 9855ft 124kts
01-Sep-23 09:46 35.184259 -118.932438 143 10310ft 124kts
01-Sep-23 09:47 35.153836 -118.911357 145 10747ft 125kts
01-Sep-23 09:48 35.122517 -118.890191 145 11043ft 135kts
01-Sep-23 09:49 35.086871 -118.866887 146 11064ft 154kts
01-Sep-23 09:50 35.048336 -118.840489 146 11108ft 160kts
01-Sep-23 09:51 35.008499 -118.814976 146 11132ft 161kts
01-Sep-23 09:52 34.969817 -118.788449 145 11172ft 158kts
01-Sep-23 09:53 34.931754 -118.762701 140 11095ft 160kts
01-Sep-23 09:54 34.895673 -118.735268 146 11055ft 151kts
01-Sep-23 09:55 34.859774 -118.709267 146 10443ft 150kts
01-Sep-23 09:56 34.825828 -118.680660 146 9727ft 145kts
01-Sep-23 09:57 34.791366 -118.655753 152 9072ft 133kts
01-Sep-23 09:58 34.762358 -118.635578 149 8886ft 117kts
01-Sep-23 09:59 34.734888 -118.616655 148 9050ft 111kts
01-Sep-23 10:00 34.707973 -118.596757 148 9060ft 112kts
01-Sep-23 10:01 34.680582 -118.577675 147 8989ft 113kts
01-Sep-23 10:01 34.656851 -118.563357 150 8936ft 113kts
01-Sep-23 10:02 34.628191 -118.546111 149 8565ft 114kts
01-Sep-23 10:04 34.589818 -118.541796 198 7607ft 152kts
01-Sep-23 10:05 34.551660 -118.559538 194 7148ft 125kts
01-Sep-23 10:05 34.524889 -118.571713 192 6844ft 122kts
01-Sep-23 10:06 34.489706 -118.585697 193 5999ft 146kts
01-Sep-23 10:07 34.451851 -118.601995 195 5333ft 139kts
01-Sep-23 10:09 34.412820 -118.619553 195 5054ft 114kts
01-Sep-23 10:10 34.384713 -118.625353 141 4771ft 106kts
01-Sep-23 10:10 34.368493 -118.605302 130 4654ft 102kts
01-Sep-23 10:11 34.351920 -118.578399 123 4777ft 100kts
01-Sep-23 10:12 34.336867 -118.550952 121 4441ft 99kts
01-Sep-23 10:13 34.322236 -118.524173 122 3935ft 95kts
01-Sep-23 10:14 34.313044 -118.494401 96 3291ft 96kts
01-Sep-23 10:15 34.306730 -118.463699 131 2611ft 92kts
01-Sep-23 10:16 34.288824 -118.444811 135 2021ft 77kts
01-Sep-23 10:17 34.272913 -118.427857 135 1419ft 72kts
01-Sep-23 10:18 34.259681 -118.413842 129 993ft 35kts
01-Sep-23 10:19 34.258028 -118.411463 328 983ft 0kts
01-Sep-23 10:20 34.258713 -118.412180 318 987ft 7kts
01-Sep-23 10:21 34.259960 -118.412633 318 994ft 0kts

Navigation Log

Ident Type
Flight plan parsing failed, navigation log unavailable